Time;durP1;ratioP1;P1;durP2;ratioP2;P2;SDS_P1;SDS_P2;PMS_P1;PMS_P2;Temp;Humidity;BMP_temperature;BMP_pressure;BME280_temperature;BME280_humidity;BME280_pressure;Samples;Min_cycle;Max_cycle;Signal;HPM_P1;HPM_P2
2022/08/12 00:44:39;;;;;;;3.00;2.80;;;28.40;50.40;;;;;;5016082;28;20459;-71
2022/08/12 00:47:10;;;;;;;2.70;2.50;;;28.40;50.30;;;;;;5014882;28;20460;-71
2022/08/12 00:49:54;;;;;;;2.47;2.27;;;28.40;50.30;;;;;;5016282;28;20540;-71
2022/08/12 00:52:25;;;;;;;2.50;2.40;;;28.40;50.30;;;;;;5015683;28;20508;-71
2022/08/12 00:54:55;;;;;;;2.90;2.70;;;28.40;50.30;;;;;;5020236;28;20520;-71
2022/08/12 00:57:27;;;;;;;2.60;2.50;;;28.50;50.30;;;;;;5015594;28;20887;-72
2022/08/12 00:59:58;;;;;;;2.50;2.40;;;28.50;50.20;;;;;;5020344;28;20459;-71
2022/08/12 01:02:29;;;;;;;2.43;2.33;;;28.50;50.30;;;;;;5009671;28;20452;-71
2022/08/12 01:13:29;;;;;;;3.47;3.20;;;28.40;50.20;;;;;;5014041;28;20485;-71
2022/08/12 01:16:00;;;;;;;2.43;2.33;;;28.40;50.20;;;;;;5016282;28;20510;-70
2022/08/12 01:18:31;;;;;;;2.70;2.50;;;28.40;50.30;;;;;;5013597;28;20483;-71
2022/08/12 01:21:11;;;;;;;2.90;2.80;;;28.40;50.20;;;;;;5011482;28;20450;-71
2022/08/12 01:24:00;;;;;;;2.43;2.33;;;28.40;50.20;;;;;;5013643;28;20455;-71
2022/08/12 01:26:53;;;;;;;2.90;2.70;;;28.40;50.20;;;;;;5017797;28;20450;-71
2022/08/12 01:29:26;;;;;;;2.30;2.03;;;28.40;50.30;;;;;;5011062;28;21009;-71
2022/08/12 01:32:04;;;;;;;2.60;2.40;;;28.40;50.20;;;;;;5031294;28;20535;-71
2022/08/12 01:34:37;;;;;;;3.17;2.63;;;28.40;50.20;;;;;;5024860;28;20837;-71
2022/08/12 01:37:08;;;;;;;2.80;2.60;;;28.40;50.10;;;;;;5024229;28;20450;-71
2022/08/12 01:39:39;;;;;;;2.70;2.60;;;28.40;50.20;;;;;;5023449;28;20517;-71
2022/08/12 01:42:33;;;;;;;2.50;2.40;;;28.40;50.20;;;;;;5011781;28;20474;-71
2022/08/12 01:45:02;;;;;;;2.90;2.70;;;28.40;50.20;;;;;;5013831;28;20813;-71
2022/08/12 01:47:41;;;;;;;2.70;2.50;;;28.40;50.20;;;;;;5025494;28;20576;-71
2022/08/12 01:50:20;;;;;;;2.57;2.47;;;28.40;50.10;;;;;;5010201;28;20477;-71
2022/08/12 01:53:05;;;;;;;2.90;2.70;;;28.40;50.10;;;;;;5009384;28;20451;-71
2022/08/12 01:55:37;;;;;;;2.53;2.43;;;28.40;50.10;;;;;;5020229;28;20475;-71
2022/08/12 01:58:22;;;;;;;2.80;2.70;;;28.40;50.10;;;;;;5027714;28;20514;-71
2022/08/12 02:00:57;;;;;;;2.70;2.50;;;28.40;50.10;;;;;;5024475;28;20493;-70
2022/08/12 02:12:46;;;;;;;2.57;2.33;;;28.30;50.20;;;;;;5003414;28;20471;-71
2022/08/12 02:15:27;;;;;;;2.40;2.30;;;28.30;50.20;;;;;;5022604;28;20539;-73
2022/08/12 02:18:12;;;;;;;2.53;2.43;;;28.30;50.20;;;;;;5012108;28;20482;-71
2022/08/12 02:20:48;;;;;;;2.80;2.60;;;28.30;50.20;;;;;;5008243;28;21263;-71
2022/08/12 02:23:25;;;;;;;2.80;2.60;;;28.30;50.20;;;;;;5015443;28;20933;-71
2022/08/12 02:25:58;;;;;;;3.10;2.90;;;28.30;50.20;;;;;;5016038;28;20462;-71
2022/08/12 02:28:27;;;;;;;2.63;2.53;;;28.40;50.00;;;;;;5016613;28;20790;-71
2022/08/12 02:31:01;;;;;;;3.53;2.37;;;28.30;50.10;;;;;;5020074;28;20476;-71
2022/08/12 02:33:37;;;;;;;2.90;2.70;;;28.30;50.20;;;;;;5019979;28;20989;-71
2022/08/12 02:36:08;;;;;;;2.87;2.67;;;28.30;50.20;;;;;;5030380;28;20451;-71
2022/08/12 02:38:37;;;;;;;2.60;2.50;;;28.30;50.10;;;;;;5010859;28;20854;-71
2022/08/12 02:41:11;;;;;;;3.20;3.00;;;28.30;50.20;;;;;;5008133;28;20492;-70
2022/08/12 02:43:45;;;;;;;2.40;2.30;;;28.30;50.10;;;;;;5011754;28;20497;-71
2022/08/12 02:46:21;;;;;;;3.00;2.80;;;28.30;50.10;;;;;;5002332;28;20523;-71
2022/08/12 02:48:51;;;;;;;2.60;2.43;;;28.30;50.20;;;;;;5010257;28;20492;-70
2022/08/12 02:51:23;;;;;;;3.23;3.03;;;28.30;50.10;;;;;;5012421;28;20475;-71
2022/08/12 02:53:52;;;;;;;2.53;2.43;;;28.30;50.10;;;;;;5026691;28;20510;-70
2022/08/12 02:56:33;;;;;;;3.33;2.70;;;28.30;50.10;;;;;;5020816;28;20496;-72
2022/08/12 02:59:01;;;;;;;3.00;2.80;;;28.30;50.10;;;;;;5020290;28;20482;-71
2022/08/12 03:01:34;;;;;;;2.80;2.70;;;28.30;50.10;;;;;;5028192;28;20442;-71
2022/08/12 03:04:17;;;;;;;2.80;2.60;;;28.30;50.10;;;;;;5024523;28;20461;-71
2022/08/12 03:06:52;;;;;;;2.57;2.43;;;28.30;50.10;;;;;;5018752;28;20481;-71
2022/08/12 03:09:23;;;;;;;2.90;2.70;;;28.30;50.00;;;;;;5011488;28;20965;-71
2022/08/12 03:12:03;;;;;;;2.70;2.60;;;28.30;50.00;;;;;;5022958;28;20790;-71
2022/08/12 03:14:35;;;;;;;3.10;2.93;;;28.30;50.00;;;;;;5019886;28;20479;-72
2022/08/12 03:17:15;;;;;;;2.70;2.60;;;28.30;50.00;;;;;;5027519;28;20509;-71
2022/08/12 03:19:44;;;;;;;2.97;2.83;;;28.30;50.10;;;;;;5019928;28;20509;-71
2022/08/12 03:22:39;;;;;;;3.93;3.63;;;28.30;50.00;;;;;;5015621;28;20455;-72
2022/08/12 03:25:16;;;;;;;3.30;3.00;;;28.30;50.00;;;;;;5020055;28;21117;-71
2022/08/12 03:27:50;;;;;;;3.83;3.53;;;28.30;50.00;;;;;;4991013;28;21017;-71
2022/08/12 03:30:19;;;;;;;3.30;3.10;;;28.30;50.00;;;;;;5004744;28;20464;-71
2022/08/12 03:32:50;;;;;;;3.60;3.30;;;28.30;50.00;;;;;;5020847;28;20550;-71
2022/08/12 03:35:25;;;;;;;3.03;2.83;;;28.30;50.00;;;;;;5023257;28;20475;-71
2022/08/12 03:38:14;;;;;;;3.97;3.10;;;28.30;50.00;;;;;;5023521;28;20462;-71
2022/08/12 04:00:30;;;;;;;2.90;2.70;;;28.20;50.00;;;;;;5003620;28;20512;-71
2022/08/12 04:02:59;;;;;;;3.20;2.93;;;28.20;50.00;;;;;;5005674;28;20491;-70
2022/08/12 04:05:31;;;;;;;3.20;3.00;;;28.20;49.90;;;;;;5009845;28;20460;-71
2022/08/12 04:08:24;;;;;;;3.10;2.90;;;28.20;49.90;;;;;;5003267;28;20562;-71
2022/08/12 04:13:40;;;;;;;3.00;2.80;;;28.20;49.90;;;;;;5017489;28;20545;-70
2022/08/12 04:16:12;;;;;;;3.27;3.00;;;28.20;49.90;;;;;;5005871;28;20585;-70
2022/08/12 04:18:41;;;;;;;3.33;3.07;;;28.20;49.90;;;;;;5018309;28;20482;-71
2022/08/12 04:21:11;;;;;;;3.33;3.13;;;28.20;49.80;;;;;;5007197;28;20459;-71
2022/08/12 04:23:42;;;;;;;3.03;2.83;;;28.20;49.90;;;;;;5024058;28;20520;-71
2022/08/12 04:26:16;;;;;;;4.07;2.90;;;28.20;49.90;;;;;;5010535;28;20461;-71
2022/08/12 04:28:44;;;;;;;2.70;2.50;;;28.20;49.80;;;;;;5015705;28;20552;-71
2022/08/12 04:31:13;;;;;;;3.13;2.93;;;28.20;49.80;;;;;;5013074;28;20455;-70
2022/08/12 04:33:43;;;;;;;3.30;3.10;;;28.20;49.80;;;;;;5021408;28;20446;-70
2022/08/12 04:36:13;;;;;;;2.97;2.87;;;28.20;49.80;;;;;;5013216;28;20537;-70
2022/08/12 04:38:42;;;;;;;2.77;2.67;;;28.20;49.80;;;;;;5019890;28;20506;-71
2022/08/12 04:41:11;;;;;;;3.10;2.90;;;28.20;49.80;;;;;;5018600;28;20486;-70
2022/08/12 04:43:39;;;;;;;2.93;2.73;;;28.20;49.80;;;;;;5004439;28;20526;-71
2022/08/12 04:46:30;;;;;;;2.80;2.60;;;28.20;49.80;;;;;;5006843;28;20462;-71
2022/08/12 04:49:03;;;;;;;2.97;2.77;;;28.20;49.80;;;;;;5017738;28;20451;-71
2022/08/12 04:51:33;;;;;;;3.20;3.00;;;28.20;49.90;;;;;;5010225;28;20483;-71
2022/08/12 04:54:03;;;;;;;3.10;2.90;;;28.20;49.80;;;;;;5022084;28;20501;-71
2022/08/12 04:56:31;;;;;;;3.10;2.90;;;28.20;49.80;;;;;;5008669;28;20588;-70
2022/08/12 04:59:04;;;;;;;3.60;3.03;;;28.20;49.80;;;;;;5003151;28;20507;-70
2022/08/12 05:01:32;;;;;;;3.53;2.90;;;28.10;49.60;;;;;;5002130;28;20462;-70
2022/08/12 05:04:01;;;;;;;3.17;2.90;;;28.10;49.40;;;;;;5005086;28;20454;-70
2022/08/12 05:06:29;;;;;;;3.20;3.00;;;28.10;49.50;;;;;;5003390;28;20486;-71
2022/08/12 05:09:00;;;;;;;2.80;2.60;;;28.10;49.50;;;;;;5003200;28;20973;-71
2022/08/12 05:11:28;;;;;;;3.83;3.53;;;28.00;49.50;;;;;;5002951;28;20469;-71
2022/08/12 05:14:00;;;;;;;3.10;2.90;;;28.00;49.50;;;;;;4997750;28;20461;-71
2022/08/12 05:16:29;;;;;;;3.83;3.03;;;28.00;49.60;;;;;;4999760;28;21067;-71
2022/08/12 05:19:03;;;;;;;3.57;2.90;;;28.00;49.60;;;;;;5006223;28;20470;-71
2022/08/12 05:21:32;;;;;;;2.70;2.60;;;28.00;49.60;;;;;;5002349;28;20809;-70
2022/08/12 05:24:02;;;;;;;2.83;2.63;;;28.00;49.60;;;;;;5006856;28;20525;-70
2022/08/12 05:26:30;;;;;;;3.33;3.10;;;28.00;49.60;;;;;;5007288;28;20462;-70
2022/08/12 05:28:58;;;;;;;3.13;2.93;;;28.00;49.70;;;;;;5004150;28;20506;-71
2022/08/12 05:31:28;;;;;;;2.47;2.37;;;28.00;49.70;;;;;;5010225;28;20557;-71
2022/08/12 05:34:15;;;;;;;4.00;3.80;;;28.00;49.70;;;;;;5000722;28;20536;-71
2022/08/12 05:36:43;;;;;;;3.57;3.27;;;28.10;49.50;;;;;;5001399;28;20482;-72
2022/08/12 05:39:13;;;;;;;3.90;3.60;;;28.10;49.00;;;;;;4998525;28;20454;-71
2022/08/12 05:41:43;;;;;;;3.80;3.50;;;28.00;49.20;;;;;;4998349;28;20465;-70
2022/08/12 05:44:14;;;;;;;5.00;4.50;;;28.00;48.70;;;;;;4997279;28;20463;-71
2022/08/12 05:46:43;;;;;;;4.90;4.33;;;27.60;49.10;;;;;;4999769;28;20494;-71
2022/08/12 05:49:11;;;;;;;4.83;4.43;;;27.30;49.80;;;;;;5007019;28;20546;-71
2022/08/12 05:51:39;;;;;;;3.90;3.67;;;27.10;50.10;;;;;;5005597;28;21302;-71
2022/08/12 05:54:09;;;;;;;3.70;3.50;;;27.00;50.20;;;;;;5000177;28;20539;-72
2022/08/12 05:56:40;;;;;;;4.97;4.33;;;26.90;51.10;;;;;;5000904;28;20476;-71
2022/08/12 05:59:10;;;;;;;5.00;4.60;;;26.80;50.80;;;;;;4999946;28;20577;-71
2022/08/12 06:01:40;;;;;;;3.70;3.50;;;26.60;51.10;;;;;;5003917;28;20823;-71
2022/08/12 06:04:28;;;;;;;4.20;3.90;;;26.60;51.30;;;;;;5006466;28;20484;-71
2022/08/12 06:06:57;;;;;;;2.50;2.40;;;26.50;52.30;;;;;;5005253;28;20538;-73
2022/08/12 06:09:27;;;;;;;3.00;2.80;;;26.60;52.50;;;;;;5000006;28;20813;-71
2022/08/12 06:11:57;;;;;;;3.00;2.77;;;26.80;52.50;;;;;;4999423;28;20506;-73
2022/08/12 06:14:35;;;;;;;5.80;3.20;;;27.00;52.30;;;;;;5009428;28;20926;-73
2022/08/12 06:17:07;;;;;;;7.40;3.37;;;27.20;52.00;;;;;;5000367;28;20505;-72
2022/08/12 06:19:35;;;;;;;6.03;4.30;;;27.40;51.90;;;;;;5004875;28;20462;-72
2022/08/12 06:22:24;;;;;;;6.00;3.47;;;27.50;51.70;;;;;;5006756;28;20470;-72
2022/08/12 06:24:53;;;;;;;4.93;2.70;;;27.50;51.60;;;;;;5006829;28;20500;-72
2022/08/12 06:27:22;;;;;;;7.43;4.30;;;27.60;51.70;;;;;;5013172;28;20560;-72
2022/08/12 06:29:51;;;;;;;4.90;3.50;;;27.60;51.50;;;;;;5016954;28;20459;-71
2022/08/12 06:32:38;;;;;;;10.83;3.37;;;27.70;51.40;;;;;;5010883;28;20451;-71
2022/08/12 06:35:27;;;;;;;3.90;3.60;;;27.70;51.60;;;;;;5015284;28;20597;-73
2022/08/12 06:38:17;;;;;;;4.70;3.40;;;27.70;51.60;;;;;;5013708;28;20454;-71
2022/08/12 06:43:37;;;;;;;6.17;3.50;;;27.80;51.50;;;;;;4995524;28;21123;-72
2022/08/12 06:46:27;;;;;;;12.43;4.57;;;27.90;51.40;;;;;;5006110;28;20566;-71
2022/08/12 06:48:57;;;;;;;3.80;3.50;;;28.00;51.30;;;;;;5008639;28;20535;-72
2022/08/12 06:51:27;;;;;;;6.03;3.53;;;28.00;51.10;;;;;;5004318;28;20492;-72
2022/08/12 06:53:56;;;;;;;5.63;3.30;;;28.10;51.10;;;;;;5009894;28;20493;-72
2022/08/12 06:56:25;;;;;;;3.57;3.23;;;28.10;51.10;;;;;;5002587;28;20498;-73
2022/08/12 06:59:14;;;;;;;3.83;3.53;;;28.10;51.00;;;;;;5010276;28;20500;-72
2022/08/12 07:01:43;;;;;;;4.03;3.73;;;28.20;51.10;;;;;;5003625;28;20454;-72
2022/08/12 07:04:19;;;;;;;3.90;3.50;;;28.20;51.00;;;;;;4993836;28;20501;-72
2022/08/12 07:07:07;;;;;;;4.30;3.90;;;28.20;51.00;;;;;;5015604;28;20454;-72
2022/08/12 07:09:35;;;;;;;6.67;3.73;;;28.20;51.10;;;;;;4999173;28;20509;-73
2022/08/12 07:12:26;;;;;;;6.47;3.87;;;28.30;51.30;;;;;;5015472;28;20542;-72
2022/08/12 07:14:57;;;;;;;6.80;4.10;;;28.30;51.40;;;;;;5007526;28;20456;-72
2022/08/12 07:17:34;;;;;;;6.87;4.57;;;28.30;51.70;;;;;;4998141;28;20492;-73
2022/08/12 07:20:04;;;;;;;6.10;4.00;;;28.30;52.00;;;;;;5003496;28;22518;-70
2022/08/12 07:22:33;;;;;;;3.77;3.47;;;28.40;52.90;;;;;;5001972;28;20529;-72
2022/08/12 07:27:49;;;;;;;6.80;4.50;;;28.40;52.70;;;;;;5001701;28;20464;-72
2022/08/12 07:30:18;;;;;;;4.53;3.60;;;28.30;53.10;;;;;;5001711;28;20472;-70
2022/08/12 07:32:48;;;;;;;3.70;3.20;;;28.30;53.40;;;;;;5017354;28;20453;-69
2022/08/12 07:35:18;;;;;;;4.77;3.47;;;28.40;53.20;;;;;;5008849;28;20451;-70
2022/08/12 07:37:49;;;;;;;3.70;3.40;;;28.40;53.40;;;;;;5018122;28;20474;-70
2022/08/12 07:40:17;;;;;;;3.70;3.20;;;28.40;53.30;;;;;;5007949;28;20474;-70
2022/08/12 07:42:46;;;;;;;5.83;3.13;;;28.40;53.30;;;;;;5010130;28;20537;-70
2022/08/12 07:45:14;;;;;;;5.00;4.50;;;28.40;53.20;;;;;;5006861;28;20547;-70
2022/08/12 07:47:44;;;;;;;3.67;3.20;;;28.40;52.80;;;;;;5011226;28;21077;-70
2022/08/12 07:50:14;;;;;;;4.00;3.50;;;28.40;52.60;;;;;;5014996;28;20447;-70
2022/08/12 07:52:48;;;;;;;3.47;3.17;;;28.40;52.60;;;;;;5009863;28;20459;-70
2022/08/12 07:55:18;;;;;;;3.33;3.03;;;28.40;52.80;;;;;;5009744;28;20485;-70
2022/08/12 07:57:54;;;;;;;3.40;3.10;;;28.40;52.70;;;;;;4997843;28;20564;-70
2022/08/12 08:00:23;;;;;;;3.40;3.17;;;28.40;52.30;;;;;;5017298;28;20529;-71
2022/08/12 08:02:54;;;;;;;3.47;2.97;;;28.50;52.70;;;;;;5006102;28;20463;-70
2022/08/12 08:05:25;;;;;;;2.83;2.73;;;28.50;52.30;;;;;;4998461;28;20505;-70
2022/08/12 08:07:54;;;;;;;3.20;3.00;;;28.50;52.30;;;;;;5010233;28;20567;-70
2022/08/12 08:10:23;;;;;;;3.30;2.90;;;28.50;52.50;;;;;;5017986;28;20574;-72
2022/08/12 08:12:52;;;;;;;4.47;2.83;;;28.50;52.30;;;;;;5002528;28;20521;-70
2022/08/12 08:15:21;;;;;;;3.40;3.10;;;28.60;51.70;;;;;;5008558;28;20845;-69
2022/08/12 08:18:12;;;;;;;3.57;3.37;;;28.60;52.00;;;;;;5004038;28;20494;-70
2022/08/12 08:20:56;;;;;;;3.37;3.17;;;28.50;52.00;;;;;;5010784;28;20448;-70
2022/08/12 08:24:13;;;;;;;2.83;2.63;;;28.50;52.00;;;;;;5011420;28;20907;-69
2022/08/12 08:26:25;;;;;;;3.73;3.20;;;28.60;51.90;;;;;;5005064;28;20462;-70
2022/08/12 08:28:54;;;;;;;3.20;3.00;;;28.60;51.90;;;;;;5008013;28;20462;-70
2022/08/12 08:31:22;;;;;;;2.97;2.70;;;28.50;51.90;;;;;;5005610;28;20463;-69
2022/08/12 08:33:53;;;;;;;3.17;2.97;;;28.50;51.80;;;;;;5003039;28;20482;-70
2022/08/12 08:36:42;;;;;;;3.53;2.83;;;28.50;51.90;;;;;;5002138;28;20488;-69
2022/08/12 08:39:15;;;;;;;3.03;2.83;;;28.50;52.20;;;;;;5003886;28;20512;-70
2022/08/12 08:44:47;;;;;;;3.50;3.20;;;28.50;52.00;;;;;;4995916;28;20499;-69
2022/08/12 08:47:25;;;;;;;3.03;2.77;;;28.50;52.10;;;;;;5002644;28;20810;-69
2022/08/12 08:49:59;;;;;;;2.93;2.73;;;28.50;52.20;;;;;;5005850;28;20526;-70
2022/08/12 08:52:28;;;;;;;3.90;2.50;;;28.50;52.50;;;;;;5007603;28;20473;-70
2022/08/12 08:55:09;;;;;;;3.13;2.93;;;28.50;52.20;;;;;;5005001;28;20466;-71
2022/08/12 08:57:38;;;;;;;2.90;2.70;;;28.50;52.00;;;;;;5005564;28;20537;-71
2022/08/12 09:00:14;;;;;;;2.57;2.43;;;28.60;51.60;;;;;;5003642;28;20465;-69
2022/08/12 09:02:43;;;;;;;3.13;2.90;;;28.50;52.40;;;;;;5009405;28;20460;-70
2022/08/12 09:05:28;;;;;;;3.17;2.97;;;28.50;51.90;;;;;;5004310;28;20445;-70
2022/08/12 09:08:18;;;;;;;2.33;2.13;;;28.50;52.00;;;;;;5006058;28;20844;-69
2022/08/12 09:13:26;;;;;;;2.53;2.33;;;28.60;52.10;;;;;;5011222;28;20520;-69
2022/08/12 09:14:06;;;;;;;2.87;2.67;;;28.60;52.70;;;;;;5017844;28;20463;-69
2022/08/12 09:16:40;;;;;;;2.90;2.60;;;28.60;52.30;;;;;;5002954;28;20482;-70
2022/08/12 09:19:13;;;;;;;3.80;3.50;;;28.50;52.30;;;;;;5016495;28;20459;-70
2022/08/12 09:21:58;;;;;;;3.03;2.83;;;28.60;51.40;;;;;;5005353;28;20861;-70
2022/08/12 09:24:27;;;;;;;3.43;2.67;;;28.60;51.90;;;;;;5002563;28;20537;-71
2022/08/12 09:26:58;;;;;;;3.57;3.10;;;28.60;51.60;;;;;;5006802;28;20478;-71
2022/08/12 09:29:28;;;;;;;3.83;2.80;;;28.60;50.90;;;;;;5010194;28;20517;-73
2022/08/12 09:32:17;;;;;;;4.47;2.70;;;28.60;51.00;;;;;;5001502;28;20468;-72
2022/08/12 09:35:06;;;;;;;2.93;2.73;;;28.50;50.90;;;;;;4998326;28;20570;-72
2022/08/12 09:37:56;;;;;;;2.90;2.70;;;28.50;51.70;;;;;;5011565;28;20479;-72
2022/08/12 09:40:29;;;;;;;4.13;2.77;;;28.50;51.40;;;;;;4999061;28;20587;-74
2022/08/12 09:46:28;;;;;;;5.00;2.87;;;28.50;51.30;;;;;;4957950;28;20487;-72
2022/08/12 09:49:03;;;;;;;3.10;2.90;;;28.40;51.40;;;;;;5011434;28;20950;-72
2022/08/12 09:51:46;;;;;;;2.80;2.23;;;28.40;52.10;;;;;;5004780;28;20950;-72
2022/08/12 09:54:19;;;;;;;2.70;2.50;;;28.40;52.40;;;;;;5013193;28;20498;-71
2022/08/12 09:57:08;;;;;;;2.70;2.50;;;28.50;51.70;;;;;;5008888;28;20456;-71
2022/08/12 09:59:57;;;;;;;2.70;2.50;;;28.50;51.20;;;;;;4997644;28;20564;-71
2022/08/12 10:02:59;;;;;;;3.60;2.70;;;28.50;51.60;;;;;;5012720;28;20460;-72
2022/08/12 10:05:32;;;;;;;2.60;2.50;;;28.50;51.60;;;;;;5006242;28;20459;-71
2022/08/12 10:08:21;;;;;;;2.63;2.30;;;28.50;51.80;;;;;;5014269;28;20458;-71
2022/08/12 10:13:49;;;;;;;2.47;2.37;;;28.50;52.00;;;;;;5003128;28;20453;-72
2022/08/12 10:16:21;;;;;;;2.30;2.20;;;28.50;52.00;;;;;;5010044;28;21170;-72
2022/08/12 10:18:56;;;;;;;2.73;2.53;;;28.50;50.80;;;;;;5003238;28;20470;-72
2022/08/12 10:21:25;;;;;;;2.27;2.13;;;28.40;51.00;;;;;;5006072;28;20503;-72
2022/08/12 10:24:05;;;;;;;3.23;2.93;;;28.50;52.10;;;;;;5005005;28;21142;-72
2022/08/12 10:29:38;;;;;;;3.37;3.17;;;28.40;51.30;;;;;;5005951;28;20508;-72
2022/08/12 10:32:26;;;;;;;2.40;2.30;;;28.40;51.30;;;;;;5009985;28;20466;-72
2022/08/12 10:35:14;;;;;;;2.90;2.20;;;28.40;51.90;;;;;;5005319;28;20456;-71
2022/08/12 10:37:44;;;;;;;2.27;2.07;;;28.40;52.10;;;;;;5008917;28;20477;-71
2022/08/12 10:40:33;;;;;;;2.50;2.30;;;28.40;52.20;;;;;;5013130;28;20498;-72
2022/08/12 10:43:41;;;;;;;2.57;2.37;;;28.40;51.60;;;;;;5006931;28;20457;-71
2022/08/12 10:46:24;;;;;;;2.50;2.30;;;28.40;49.40;;;;;;5003923;28;20450;-72
2022/08/12 10:48:59;;;;;;;2.50;2.30;;;28.30;52.20;;;;;;5015795;28;20459;-72
2022/08/12 10:51:50;;;;;;;3.30;2.57;;;28.30;51.90;;;;;;5010119;28;20497;-72
2022/08/12 10:54:39;;;;;;;2.50;2.30;;;28.30;52.30;;;;;;5007998;28;20466;-73
2022/08/12 10:57:09;;;;;;;2.43;2.27;;;28.30;52.10;;;;;;5009334;28;20800;-71
2022/08/12 10:59:59;;;;;;;2.50;2.30;;;28.40;51.60;;;;;;5018905;28;20447;-71
2022/08/12 11:02:53;;;;;;;4.30;2.20;;;28.50;51.10;;;;;;5012744;28;20461;-72
2022/08/12 11:05:43;;;;;;;3.23;2.70;;;28.60;51.20;;;;;;5007680;28;20538;-73
2022/08/12 11:08:36;;;;;;;2.53;2.40;;;28.50;51.10;;;;;;4996790;28;20462;-75
2022/08/12 11:11:16;;;;;;;4.10;3.70;;;28.50;52.00;;;;;;5009742;28;20466;-72
2022/08/12 11:14:04;;;;;;;5.00;3.00;;;28.60;51.80;;;;;;5012785;28;20469;-74
2022/08/12 11:16:41;;;;;;;6.53;3.77;;;28.60;52.10;;;;;;5001408;28;20560;-72
2022/08/12 11:19:31;;;;;;;3.07;2.80;;;28.70;51.90;;;;;;5001760;28;20487;-72
2022/08/12 11:22:00;;;;;;;6.13;2.50;;;28.80;49.00;;;;;;4997231;28;20482;-72
2022/08/12 11:24:31;;;;;;;4.07;2.70;;;28.90;47.60;;;;;;5002062;28;20457;-72
2022/08/12 11:27:05;;;;;;;3.87;3.10;;;28.90;49.30;;;;;;5007026;28;20475;-72
2022/08/12 11:29:37;;;;;;;3.97;3.13;;;29.00;48.80;;;;;;5003510;28;20536;-72
2022/08/12 11:32:27;;;;;;;4.33;2.83;;;29.00;49.20;;;;;;5012690;28;20966;-72
2022/08/12 11:34:55;;;;;;;4.97;2.63;;;29.00;49.40;;;;;;4999021;28;20553;-72
2022/08/12 11:37:26;;;;;;;3.63;2.57;;;29.00;50.00;;;;;;5005635;28;20545;-72
2022/08/12 11:39:54;;;;;;;6.30;4.00;;;28.90;51.60;;;;;;5010203;28;20511;-72
2022/08/12 11:42:34;;;;;;;9.20;3.60;;;28.80;53.60;;;;;;5007884;28;20457;-73
2022/08/12 11:45:13;;;;;;;8.73;4.03;;;28.70;52.90;;;;;;5005099;28;20453;-72
2022/08/12 11:47:46;;;;;;;5.40;4.00;;;28.70;52.60;;;;;;5005053;28;20462;-72
2022/08/12 11:50:16;;;;;;;7.90;3.43;;;28.70;53.10;;;;;;4999484;28;20452;-72
2022/08/12 11:52:47;;;;;;;3.50;3.10;;;28.70;53.90;;;;;;4998547;28;20461;-72
2022/08/12 11:55:25;;;;;;;4.17;3.30;;;28.70;53.80;;;;;;5008092;28;20812;-72
2022/08/12 11:57:57;;;;;;;6.03;2.90;;;28.60;54.40;;;;;;5005201;28;20485;-72
2022/08/12 12:00:45;;;;;;;5.17;4.03;;;28.70;53.40;;;;;;5002148;28;20473;-72
2022/08/12 12:03:35;;;;;;;7.17;4.30;;;28.70;54.20;;;;;;5000389;28;21270;-73
2022/08/12 12:06:14;;;;;;;4.70;3.77;;;28.70;54.10;;;;;;5002906;28;20452;-72
2022/08/12 12:08:45;;;;;;;5.90;3.70;;;28.70;54.60;;;;;;5002627;28;20461;-72
2022/08/12 12:11:20;;;;;;;7.40;2.90;;;28.70;54.50;;;;;;4998061;28;20568;-73
2022/08/12 12:13:48;;;;;;;5.83;4.67;;;28.70;54.00;;;;;;5003691;28;20853;-72
2022/08/12 12:16:37;;;;;;;3.73;3.33;;;28.70;54.20;;;;;;4999995;28;20589;-73
2022/08/12 12:19:10;;;;;;;7.23;3.73;;;28.70;54.00;;;;;;5005915;28;21100;-72
2022/08/12 12:21:38;;;;;;;3.07;2.87;;;28.70;54.30;;;;;;5004471;28;20487;-75
2022/08/12 12:24:16;;;;;;;4.20;3.70;;;28.70;52.50;;;;;;5007771;28;20509;-74
2022/08/12 12:26:50;;;;;;;5.50;3.17;;;28.80;54.10;;;;;;5007956;28;20434;-74
2022/08/12 12:29:29;;;;;;;7.07;3.50;;;28.80;53.10;;;;;;5010046;28;20561;-77
2022/08/12 12:32:17;;;;;;;5.47;3.43;;;28.80;53.50;;;;;;5001145;28;20453;-77
2022/08/12 12:34:47;;;;;;;6.43;2.90;;;28.90;52.50;;;;;;5003197;28;20511;-77
2022/08/12 12:37:49;;;;;;;2.53;2.33;;;28.80;52.30;;;;;;5000997;28;20546;-78
2022/08/12 12:40:39;;;;;;;4.73;3.40;;;28.90;51.80;;;;;;5002640;28;20930;-78
2022/08/12 12:43:08;;;;;;;3.43;3.07;;;28.90;53.00;;;;;;5004008;28;20555;-77
2022/08/12 12:45:38;;;;;;;4.53;2.70;;;28.90;53.10;;;;;;5015980;28;20466;-77
2022/08/12 12:48:16;;;;;;;5.50;3.10;;;28.90;52.20;;;;;;5001855;28;20459;-76
2022/08/12 12:50:47;;;;;;;3.20;2.43;;;28.90;52.70;;;;;;4996644;28;20518;-75
2022/08/12 12:53:21;;;;;;;4.40;3.00;;;28.90;52.80;;;;;;5009342;28;20471;-75
2022/08/12 12:56:15;;;;;;;6.17;2.80;;;28.80;53.00;;;;;;5020727;28;20459;-76
2022/08/12 12:58:43;;;;;;;3.77;2.47;;;28.80;53.00;;;;;;5003764;28;20522;-75
2022/08/12 13:01:12;;;;;;;3.10;2.63;;;28.90;52.90;;;;;;5011524;28;20495;-75
2022/08/12 13:03:57;;;;;;;3.00;2.70;;;28.80;53.00;;;;;;5018329;28;21260;-73
2022/08/12 13:06:31;;;;;;;4.93;2.63;;;28.80;52.40;;;;;;5011836;28;20462;-73
2022/08/12 13:09:03;;;;;;;5.73;3.30;;;28.80;52.10;;;;;;5010198;28;20444;-73
2022/08/12 13:11:31;;;;;;;3.00;2.70;;;28.80;51.40;;;;;;5014442;28;20468;-74
2022/08/12 13:14:12;;;;;;;6.23;2.33;;;28.90;49.80;;;;;;5005761;28;20819;-74
2022/08/12 13:16:59;;;;;;;1.70;1.60;;;29.10;51.50;;;;;;5002453;28;20494;-73
2022/08/12 13:19:35;;;;;;;9.70;3.80;;;29.10;50.20;;;;;;5014029;28;20594;-78
2022/08/12 13:22:18;;;;;;;3.60;2.90;;;29.20;51.50;;;;;;5016983;28;20467;-79
2022/08/12 13:24:53;;;;;;;5.87;2.70;;;29.30;51.60;;;;;;5026729;28;20459;-80
2022/08/12 13:27:27;;;;;;;4.13;2.73;;;29.30;51.60;;;;;;5007113;28;20456;-81
2022/08/12 13:30:08;;;;;;;5.57;2.90;;;29.30;51.50;;;;;;5000714;28;20459;-79
2022/08/12 13:32:40;;;;;;;2.50;2.30;;;29.30;51.60;;;;;;5005388;28;20463;-80
2022/08/12 13:35:10;;;;;;;3.97;3.30;;;29.20;51.80;;;;;;5001145;28;20467;-79
2022/08/12 13:38:00;;;;;;;2.93;2.70;;;29.20;51.80;;;;;;5000818;28;20475;-79
2022/08/12 13:40:31;;;;;;;3.30;2.60;;;29.20;51.90;;;;;;5009285;28;20474;-81
2022/08/12 13:43:01;;;;;;;4.03;2.80;;;29.20;51.90;;;;;;5007140;28;20510;-79
2022/08/12 13:45:33;;;;;;;5.90;2.73;;;29.20;52.00;;;;;;5021494;28;20923;-79
2022/08/12 13:48:05;;;;;;;2.87;2.67;;;29.20;52.00;;;;;;5017559;28;20473;-79
2022/08/12 13:50:36;;;;;;;4.00;3.10;;;29.20;52.40;;;;;;5015359;28;20510;-77
2022/08/12 13:53:08;;;;;;;4.43;2.70;;;29.20;52.60;;;;;;5016169;28;20451;-76
2022/08/12 13:55:52;;;;;;;6.10;3.60;;;29.20;52.70;;;;;;5012686;28;20537;-80
2022/08/12 13:58:30;;;;;;;2.93;2.63;;;29.20;52.80;;;;;;5023796;28;20673;-77
2022/08/12 14:01:03;;;;;;;2.67;2.47;;;29.30;52.90;;;;;;5020881;28;21167;-77
2022/08/12 14:03:36;;;;;;;4.33;2.60;;;29.30;52.80;;;;;;5009050;28;20476;-77
2022/08/12 14:06:19;;;;;;;3.00;2.20;;;29.30;52.80;;;;;;5006746;28;20466;-77
2022/08/12 14:08:48;;;;;;;3.47;3.10;;;29.30;53.00;;;;;;5009396;28;20456;-77
2022/08/12 14:11:18;;;;;;;3.20;2.73;;;29.30;53.00;;;;;;5020458;28;20488;-77
2022/08/12 14:13:57;;;;;;;4.13;3.00;;;29.30;53.00;;;;;;5005876;28;20447;-77
2022/08/12 14:16:39;;;;;;;3.33;2.93;;;29.40;52.90;;;;;;5028720;28;20988;-77
2022/08/12 14:19:18;;;;;;;2.13;2.03;;;29.40;52.80;;;;;;5014568;28;20829;-77
2022/08/12 14:21:54;;;;;;;3.40;3.10;;;29.40;52.90;;;;;;5016512;28;20458;-77
2022/08/12 14:24:35;;;;;;;7.10;2.60;;;29.40;53.00;;;;;;5008911;28;20864;-77
2022/08/12 14:27:09;;;;;;;3.30;3.00;;;29.40;52.80;;;;;;5020502;28;20460;-77
2022/08/12 14:29:40;;;;;;;5.03;3.10;;;29.40;52.80;;;;;;5023761;28;20558;-77
2022/08/12 14:32:33;;;;;;;2.83;2.63;;;29.40;52.80;;;;;;5018117;28;20467;-77
2022/08/12 14:35:02;;;;;;;5.57;2.93;;;29.40;52.70;;;;;;5008287;28;20543;-77
2022/08/12 14:37:30;;;;;;;2.53;2.33;;;29.40;52.60;;;;;;5029629;28;20992;-77
2022/08/12 14:40:21;;;;;;;3.37;2.20;;;29.40;52.60;;;;;;5014061;28;20574;-77
2022/08/12 14:42:55;;;;;;;2.53;2.30;;;29.40;52.60;;;;;;5004589;28;20457;-77
2022/08/12 14:45:24;;;;;;;3.07;2.77;;;29.40;52.60;;;;;;5014303;28;20458;-77
2022/08/12 14:48:14;;;;;;;3.03;2.27;;;29.40;52.60;;;;;;5009949;28;20546;-77
2022/08/12 14:50:42;;;;;;;2.50;2.37;;;29.40;52.60;;;;;;5013948;28;20490;-77
2022/08/12 14:53:34;;;;;;;3.43;2.53;;;29.40;52.50;;;;;;5017438;28;20469;-76
2022/08/12 14:56:25;;;;;;;2.90;2.20;;;29.40;52.50;;;;;;5020128;28;20808;-77
2022/08/12 15:02:22;;;;;;;2.43;2.33;;;29.40;52.50;;;;;;5016107;28;20460;-77
2022/08/12 15:04:57;;;;;;;2.40;2.20;;;29.40;52.50;;;;;;5015553;28;20454;-77
2022/08/12 15:07:27;;;;;;;2.47;2.07;;;29.40;52.50;;;;;;5014671;28;20455;-76
2022/08/12 15:10:16;;;;;;;2.33;1.97;;;29.40;52.40;;;;;;5008319;28;20816;-77
2022/08/12 15:13:05;;;;;;;2.43;2.23;;;29.40;52.40;;;;;;5018136;28;20503;-77
2022/08/12 15:15:37;;;;;;;2.53;2.33;;;29.40;52.40;;;;;;5014306;28;20494;-76
2022/08/12 15:18:13;;;;;;;4.07;2.27;;;29.40;52.30;;;;;;5026743;28;20572;-77